Time;durP1;ratioP1;P1;durP2;ratioP2;P2;SDS_P1;SDS_P2;PMS_P1;PMS_P2;Temp;Humidity;BMP_temperature;BMP_pressure;BME280_temperature;BME280_humidity;BME280_pressure;Samples;Min_cycle;Max_cycle;Signal;HPM_P1;HPM_P2
2021/10/01 00:01:31;;;;;;;7.00;1.95;;;11.80;99.90;;;;;;4941183;28;20089;-87
2021/10/01 00:03:58;;;;;;;7.35;2.58;;;11.80;99.90;;;;;;4940089;28;20051;-88
2021/10/01 00:06:25;;;;;;;7.80;2.63;;;11.90;99.90;;;;;;4940969;28;20567;-88
2021/10/01 00:08:52;;;;;;;8.48;2.10;;;11.90;99.90;;;;;;4923110;28;20193;-88
2021/10/01 00:11:19;;;;;;;7.63;2.42;;;11.90;99.90;;;;;;4937866;28;20157;-88
2021/10/01 00:13:47;;;;;;;11.40;2.35;;;11.90;99.90;;;;;;4938500;28;20715;-88
2021/10/01 00:16:15;;;;;;;8.82;1.95;;;11.80;99.90;;;;;;4940832;28;20143;-88
2021/10/01 00:18:42;;;;;;;13.10;3.00;;;11.80;99.90;;;;;;4922584;28;20070;-88
2021/10/01 00:21:10;;;;;;;9.80;2.67;;;11.80;99.90;;;;;;4939974;28;20059;-88
2021/10/01 00:23:37;;;;;;;7.85;2.03;;;11.80;99.90;;;;;;4939784;28;20090;-88
2021/10/01 00:26:05;;;;;;;10.50;2.95;;;11.80;99.90;;;;;;4940150;28;20078;-88
2021/10/01 00:28:32;;;;;;;13.38;2.60;;;11.70;99.90;;;;;;4942560;28;20069;-87
2021/10/01 00:31:00;;;;;;;11.40;2.40;;;11.70;99.90;;;;;;4920617;28;20780;-88
2021/10/01 00:33:28;;;;;;;14.90;3.80;;;11.70;99.90;;;;;;4944600;28;20039;-88
2021/10/01 00:35:59;;;;;;;9.27;3.05;;;11.60;99.90;;;;;;4939443;28;20619;-88
2021/10/01 00:38:28;;;;;;;11.02;3.20;;;11.60;99.90;;;;;;4941734;28;20762;-87
2021/10/01 00:40:55;;;;;;;10.45;3.78;;;11.60;99.90;;;;;;4922805;28;20050;-88
2021/10/01 00:43:22;;;;;;;11.73;2.88;;;11.60;99.90;;;;;;4938493;28;20929;-88
2021/10/01 00:45:49;;;;;;;8.07;2.53;;;11.60;99.90;;;;;;4922912;28;20041;-88
2021/10/01 00:48:16;;;;;;;17.17;4.10;;;11.50;99.90;;;;;;4921697;28;20054;-89
2021/10/01 00:50:45;;;;;;;6.47;2.53;;;11.60;99.90;;;;;;4922256;28;20074;-88
2021/10/01 00:53:13;;;;;;;8.13;2.35;;;11.60;99.90;;;;;;4939219;28;20086;-88
2021/10/01 00:55:40;;;;;;;11.13;2.30;;;11.50;99.90;;;;;;4923472;28;20065;-87
2021/10/01 00:58:07;;;;;;;4.97;1.92;;;11.50;99.90;;;;;;4939084;28;20752;-88
2021/10/01 01:00:39;;;;;;;9.02;2.05;;;11.40;99.90;;;;;;4924523;28;20614;-87
2021/10/01 01:03:07;;;;;;;14.60;3.05;;;11.40;99.90;;;;;;4903322;28;20054;-87
2021/10/01 01:06:01;;;;;;;10.07;2.30;;;11.40;99.90;;;;;;4921331;28;20066;-87
2021/10/01 01:08:39;;;;;;;9.80;3.20;;;11.40;99.90;;;;;;4922384;28;20710;-87
2021/10/01 01:11:16;;;;;;;12.27;1.95;;;11.30;99.90;;;;;;4938617;28;20058;-88
2021/10/01 01:13:52;;;;;;;11.02;3.40;;;11.30;99.90;;;;;;4923316;28;20070;-87
2021/10/01 01:16:27;;;;;;;11.40;2.38;;;11.30;99.90;;;;;;4905617;28;20051;-88
2021/10/01 01:18:58;;;;;;;9.43;3.00;;;11.20;99.90;;;;;;4921325;28;20528;-88
2021/10/01 01:21:36;;;;;;;9.00;2.83;;;11.20;99.90;;;;;;4938525;28;20059;-88
2021/10/01 01:24:21;;;;;;;12.30;2.85;;;11.20;99.90;;;;;;4923372;28;20088;-88
2021/10/01 01:27:17;;;;;;;12.80;4.05;;;11.10;99.90;;;;;;4922129;28;20534;-88
2021/10/01 01:30:10;;;;;;;12.38;2.72;;;11.20;99.90;;;;;;4939155;28;20483;-88
2021/10/01 01:32:43;;;;;;;19.55;3.38;;;11.20;99.90;;;;;;4923973;28;20049;-88
2021/10/01 01:35:20;;;;;;;9.10;2.53;;;11.20;99.90;;;;;;4916589;28;20377;-88
2021/10/01 01:37:58;;;;;;;15.60;4.15;;;11.20;99.90;;;;;;4921430;28;20041;-87
2021/10/01 01:40:31;;;;;;;9.90;2.95;;;11.20;99.90;;;;;;4923105;28;20385;-88
2021/10/01 01:43:00;;;;;;;12.07;2.45;;;11.20;99.90;;;;;;4920337;28;20073;-88
2021/10/01 01:45:28;;;;;;;11.05;2.47;;;11.20;99.90;;;;;;4922732;28;20130;-88
2021/10/01 01:47:56;;;;;;;16.63;2.78;;;11.10;99.90;;;;;;4919432;28;20650;-88
2021/10/01 01:50:26;;;;;;;8.13;2.15;;;11.10;99.90;;;;;;4919718;28;20047;-88
2021/10/01 01:52:54;;;;;;;12.57;2.88;;;11.00;99.90;;;;;;4920567;28;20644;-88
2021/10/01 01:55:22;;;;;;;11.70;3.30;;;11.00;99.90;;;;;;4937912;28;20061;-88
2021/10/01 01:57:51;;;;;;;11.25;3.63;;;11.00;99.90;;;;;;4922645;28;20109;-88
2021/10/01 02:00:38;;;;;;;12.88;2.88;;;11.00;99.90;;;;;;4920900;28;20065;-88
2021/10/01 02:03:07;;;;;;;9.75;4.05;;;11.10;99.90;;;;;;4933154;28;20074;-89
2021/10/01 02:05:35;;;;;;;11.65;3.28;;;11.10;99.90;;;;;;4919688;28;20050;-89
2021/10/01 02:08:02;;;;;;;11.90;3.38;;;11.10;99.90;;;;;;4938391;28;20054;-88
2021/10/01 02:10:32;;;;;;;12.00;3.30;;;11.10;99.90;;;;;;4921801;28;20042;-89
2021/10/01 02:13:01;;;;;;;9.43;2.63;;;11.10;99.90;;;;;;4921398;28;20130;-89
2021/10/01 02:15:32;;;;;;;16.75;3.78;;;11.20;99.90;;;;;;4905870;28;20042;-88
2021/10/01 02:18:01;;;;;;;12.48;4.20;;;11.20;99.90;;;;;;4923363;28;20054;-88
2021/10/01 02:20:31;;;;;;;6.30;2.70;;;11.20;99.90;;;;;;4937881;28;20673;-88
2021/10/01 02:22:58;;;;;;;13.70;3.70;;;11.10;99.90;;;;;;4917041;28;20153;-88
2021/10/01 02:28:19;;;;;;;8.80;2.50;;;11.20;99.90;;;;;;4935096;28;20078;-87
2021/10/01 02:30:48;;;;;;;12.35;3.20;;;11.20;99.90;;;;;;4937130;28;20086;-88
2021/10/01 02:33:34;;;;;;;10.93;4.18;;;11.20;99.90;;;;;;4917858;28;20051;-87
2021/10/01 02:36:02;;;;;;;7.47;3.47;;;11.20;99.90;;;;;;4940091;28;20043;-87
2021/10/01 02:38:29;;;;;;;14.07;3.15;;;11.10;99.90;;;;;;4919968;28;20798;-87
2021/10/01 02:40:56;;;;;;;14.13;3.03;;;11.20;99.90;;;;;;4938547;28;20118;-87
2021/10/01 02:43:23;;;;;;;15.57;3.03;;;11.20;99.90;;;;;;4920990;28;20476;-87
2021/10/01 02:45:51;;;;;;;9.05;2.00;;;11.20;99.90;;;;;;4908128;28;20047;-88
2021/10/01 02:48:18;;;;;;;12.20;1.52;;;11.20;99.90;;;;;;4920206;28;20054;-87
2021/10/01 02:50:51;;;;;;;9.90;2.97;;;11.30;99.90;;;;;;4938912;28;20045;-88
2021/10/01 02:53:29;;;;;;;5.25;2.80;;;11.30;99.90;;;;;;4920637;28;20061;-88
2021/10/01 02:56:12;;;;;;;5.30;2.42;;;11.30;99.90;;;;;;4921378;28;20066;-87
2021/10/01 02:58:41;;;;;;;11.35;2.10;;;11.30;99.90;;;;;;4921662;28;22560;-87
2021/10/01 03:01:11;;;;;;;5.40;1.98;;;11.20;99.90;;;;;;4919270;28;20070;-87
2021/10/01 03:03:45;;;;;;;8.93;2.03;;;11.20;99.90;;;;;;4942021;28;20793;-87
2021/10/01 03:06:13;;;;;;;7.93;2.35;;;11.30;99.90;;;;;;4940559;28;20043;-87
2021/10/01 03:08:41;;;;;;;6.07;2.38;;;11.20;99.90;;;;;;4924748;28;20077;-87
2021/10/01 03:11:13;;;;;;;9.27;3.35;;;11.20;99.90;;;;;;4925208;28;20173;-87
2021/10/01 03:13:44;;;;;;;9.80;2.05;;;11.20;99.90;;;;;;4926392;28;20105;-87
2021/10/01 03:16:12;;;;;;;9.43;2.20;;;11.10;99.90;;;;;;4925040;28;20053;-87
2021/10/01 03:18:40;;;;;;;6.13;1.90;;;11.10;99.90;;;;;;4924552;28;20397;-88
2021/10/01 03:21:07;;;;;;;10.13;2.22;;;11.10;99.90;;;;;;4905751;28;20400;-87
2021/10/01 03:23:40;;;;;;;14.00;4.53;;;11.00;99.90;;;;;;4925822;28;20038;-87
2021/10/01 03:26:08;;;;;;;2.63;1.42;;;11.00;99.90;;;;;;4940391;28;20046;-88
2021/10/01 03:28:41;;;;;;;11.75;2.22;;;11.00;99.90;;;;;;4925973;28;20055;-87
2021/10/01 03:31:08;;;;;;;10.07;4.30;;;11.00;99.90;;;;;;4922780;28;20043;-87
2021/10/01 03:33:38;;;;;;;9.50;2.30;;;10.90;99.90;;;;;;4907128;28;20039;-88
2021/10/01 03:36:07;;;;;;;10.43;2.47;;;10.90;99.90;;;;;;4940455;28;20066;-88
2021/10/01 03:38:37;;;;;;;;;;;10.90;99.90;;;;;;4924546;28;20062;-87
2021/10/01 03:41:06;;;;;;;9.20;2.10;;;11.00;99.90;;;;;;4912898;28;19985;-87
2021/10/01 03:43:33;;;;;;;5.45;2.25;;;10.90;99.90;;;;;;4924917;28;20113;-87
2021/10/01 03:46:01;;;;;;;9.32;3.08;;;10.90;99.90;;;;;;4924391;28;20050;-88
2021/10/01 03:48:28;;;;;;;7.00;2.50;;;10.90;99.90;;;;;;4922231;28;20133;-87
2021/10/01 03:51:04;;;;;;;6.60;1.90;;;10.80;99.90;;;;;;4922389;28;20439;-87
2021/10/01 03:53:33;;;;;;;13.45;3.65;;;10.80;99.90;;;;;;4922184;28;20085;-87
2021/10/01 03:56:00;;;;;;;11.52;3.60;;;10.70;99.90;;;;;;4909168;28;20085;-88
2021/10/01 03:58:29;;;;;;;8.60;3.05;;;10.70;99.90;;;;;;4939258;28;20090;-88
2021/10/01 04:00:57;;;;;;;7.18;3.00;;;10.70;99.90;;;;;;4937991;28;20096;-87
2021/10/01 04:03:25;;;;;;;10.73;3.45;;;10.60;99.90;;;;;;4940152;28;20444;-88
2021/10/01 04:05:56;;;;;;;14.52;4.90;;;10.60;99.90;;;;;;4924859;28;20105;-88
2021/10/01 04:08:23;;;;;;;8.70;4.05;;;10.60;99.90;;;;;;4922428;28;20065;-88
2021/10/01 04:10:50;;;;;;;9.65;4.20;;;10.50;99.90;;;;;;4907096;28;20051;-88
2021/10/01 04:13:17;;;;;;;12.55;2.90;;;10.50;99.90;;;;;;4938240;28;20051;-88
2021/10/01 04:15:50;;;;;;;9.88;3.92;;;10.40;99.90;;;;;;4924472;28;20383;-90
2021/10/01 04:18:20;;;;;;;9.10;3.50;;;10.40;99.90;;;;;;4924900;28;20051;-89
2021/10/01 04:20:47;;;;;;;9.35;4.78;;;10.30;99.90;;;;;;4905468;28;20054;-88
2021/10/01 04:23:15;;;;;;;12.55;6.55;;;10.30;99.90;;;;;;4921377;28;20181;-87
2021/10/01 04:25:51;;;;;;;6.68;2.75;;;10.20;99.90;;;;;;4939949;28;20054;-87
2021/10/01 04:28:20;;;;;;;7.67;2.83;;;10.20;99.90;;;;;;4940068;28;20167;-87
2021/10/01 04:30:53;;;;;;;15.65;2.83;;;10.10;99.90;;;;;;4910171;28;20145;-87
2021/10/01 04:33:24;;;;;;;10.25;2.60;;;10.10;99.90;;;;;;4907645;28;20146;-87
2021/10/01 04:35:55;;;;;;;15.32;3.60;;;10.00;99.90;;;;;;4923867;28;20069;-87
2021/10/01 04:38:24;;;;;;;5.85;2.85;;;10.00;99.90;;;;;;4924169;28;20046;-86
2021/10/01 04:40:52;;;;;;;8.05;3.20;;;9.90;99.90;;;;;;4941094;28;20444;-87
2021/10/01 04:43:21;;;;;;;9.20;2.50;;;9.90;99.90;;;;;;4921170;28;20039;-87
2021/10/01 04:46:09;;;;;;;7.03;3.50;;;9.90;99.90;;;;;;4922901;28;20153;-87
2021/10/01 04:48:37;;;;;;;9.07;3.78;;;9.80;99.90;;;;;;4923677;28;20042;-87
2021/10/01 04:51:06;;;;;;;12.30;3.22;;;9.80;99.90;;;;;;4923115;28;20111;-87
2021/10/01 04:53:33;;;;;;;10.82;4.43;;;9.70;99.90;;;;;;4907797;28;20644;-86
2021/10/01 04:56:01;;;;;;;12.27;3.13;;;9.80;99.90;;;;;;4921333;28;20058;-86
2021/10/01 04:58:28;;;;;;;12.43;2.75;;;9.80;99.90;;;;;;4933710;28;20154;-86
2021/10/01 05:01:04;;;;;;;9.05;3.15;;;9.80;99.90;;;;;;4936835;28;20047;-85
2021/10/01 05:03:49;;;;;;;11.18;3.33;;;9.70;99.90;;;;;;4937147;28;20058;-85
2021/10/01 05:06:29;;;;;;;12.18;4.22;;;9.70;99.90;;;;;;4904888;28;20074;-85
2021/10/01 05:09:15;;;;;;;12.38;4.72;;;9.80;99.90;;;;;;4935534;28;20049;-85
2021/10/01 05:12:09;;;;;;;9.55;3.45;;;9.80;99.90;;;;;;4917519;28;20098;-85
2021/10/01 05:14:56;;;;;;;6.80;3.10;;;9.80;99.90;;;;;;4941602;28;20055;-86
2021/10/01 05:17:41;;;;;;;6.43;3.25;;;9.80;99.90;;;;;;4928172;28;20057;-86
2021/10/01 05:20:27;;;;;;;5.13;2.88;;;9.80;99.90;;;;;;4939309;28;20140;-86
2021/10/01 05:23:19;;;;;;;6.43;3.33;;;9.80;99.90;;;;;;4935732;28;20485;-88
2021/10/01 05:25:46;;;;;;;7.68;2.92;;;9.80;99.90;;;;;;4938645;28;20159;-86
2021/10/01 05:28:13;;;;;;;9.63;3.75;;;9.80;99.90;;;;;;4937768;28;20042;-86
2021/10/01 05:30:40;;;;;;;5.95;3.42;;;9.80;99.90;;;;;;4907538;28;20050;-86
2021/10/01 05:33:09;;;;;;;6.38;3.78;;;9.80;99.90;;;;;;4920553;28;20051;-85
2021/10/01 05:35:36;;;;;;;9.05;3.50;;;9.90;99.90;;;;;;4921908;28;20058;-85
2021/10/01 05:38:03;;;;;;;12.40;3.50;;;9.90;99.90;;;;;;4938516;28;20043;-85
2021/10/01 05:40:31;;;;;;;8.38;3.42;;;9.90;99.90;;;;;;4938337;28;20047;-86
2021/10/01 05:43:02;;;;;;;10.30;3.03;;;10.00;99.90;;;;;;4937391;28;20057;-86
2021/10/01 05:45:29;;;;;;;5.82;2.88;;;10.00;99.90;;;;;;4905787;28;20101;-86
2021/10/01 05:48:15;;;;;;;8.90;3.72;;;10.00;99.90;;;;;;4924065;28;20049;-87
2021/10/01 05:51:05;;;;;;;7.20;4.35;;;10.00;99.90;;;;;;4923129;28;20058;-86
2021/10/01 05:54:11;;;;;;;13.73;5.85;;;10.10;99.90;;;;;;4956130;28;20473;-86
2021/10/01 05:56:58;;;;;;;10.18;3.63;;;10.10;99.90;;;;;;4953258;28;20771;-85
2021/10/01 05:59:36;;;;;;;6.15;2.97;;;10.10;99.90;;;;;;4941604;28;20047;-85
2021/10/01 06:02:03;;;;;;;11.45;4.05;;;10.20;99.90;;;;;;4955702;28;20538;-85
2021/10/01 06:04:31;;;;;;;7.25;3.20;;;10.20;99.90;;;;;;4958758;28;20435;-85
2021/10/01 06:06:57;;;;;;;7.70;3.45;;;10.30;99.90;;;;;;4940189;28;20925;-85
2021/10/01 06:09:24;;;;;;;5.90;3.03;;;10.40;99.90;;;;;;4954927;28;20043;-85
2021/10/01 06:11:51;;;;;;;8.02;3.33;;;10.40;99.90;;;;;;4944382;28;20331;-85
2021/10/01 06:14:24;;;;;;;10.30;4.22;;;10.50;99.90;;;;;;4947579;28;20133;-86
2021/10/01 06:16:52;;;;;;;7.78;3.20;;;10.50;99.90;;;;;;4961155;28;20067;-85
2021/10/01 06:19:20;;;;;;;5.97;2.90;;;10.60;99.90;;;;;;4942330;28;20063;-85
2021/10/01 06:21:47;;;;;;;11.85;4.38;;;10.60;99.90;;;;;;4959742;28;20142;-87
2021/10/01 06:24:14;;;;;;;8.90;3.85;;;10.70;99.90;;;;;;4957833;28;20050;-87
2021/10/01 06:26:41;;;;;;;7.32;3.78;;;10.80;99.90;;;;;;4924767;28;20793;-87
2021/10/01 06:29:08;;;;;;;15.05;5.07;;;10.90;99.90;;;;;;4956947;28;20452;-87
2021/10/01 06:31:35;;;;;;;10.45;4.88;;;11.00;99.90;;;;;;4961537;28;20531;-87
2021/10/01 06:34:02;;;;;;;11.43;3.80;;;11.10;99.90;;;;;;4942829;28;20050;-87
2021/10/01 06:36:29;;;;;;;9.45;3.83;;;11.10;99.90;;;;;;4961473;28;20043;-86
2021/10/01 06:38:56;;;;;;;12.55;3.63;;;11.20;99.90;;;;;;4935971;28;20054;-87
2021/10/01 06:41:23;;;;;;;9.20;3.90;;;11.30;99.90;;;;;;4959238;28;20389;-86
2021/10/01 06:43:57;;;;;;;8.20;3.50;;;11.50;99.90;;;;;;4960757;28;20145;-85
2021/10/01 07:22:39;;;;;;;5.47;3.17;;;12.40;99.90;;;;;;4960639;28;20603;-86
2021/10/01 07:39:18;;;;;;;6.03;2.05;;;12.80;99.90;;;;;;4960023;28;20098;-86
2021/10/01 07:45:34;;;;;;;5.03;2.60;;;12.90;99.90;;;;;;4954258;28;20059;-85
2021/10/01 08:18:29;;;;;;;5.78;1.75;;;13.80;99.90;;;;;;4957421;28;20082;-87
2021/10/01 08:20:56;;;;;;;1.83;1.20;;;13.80;99.90;;;;;;4958381;28;20042;-86
2021/10/01 08:23:23;;;;;;;3.58;1.23;;;13.80;99.90;;;;;;4942917;28;20050;-86
2021/10/01 08:25:50;;;;;;;5.13;1.60;;;13.90;99.90;;;;;;4962594;28;20113;-87
2021/10/01 08:28:17;;;;;;;4.88;1.35;;;13.90;99.90;;;;;;4961668;28;20054;-86
2021/10/01 08:31:04;;;;;;;5.30;1.48;;;14.00;99.90;;;;;;4958885;28;20046;-86
2021/10/01 08:33:32;;;;;;;6.68;3.03;;;14.00;99.90;;;;;;4928186;28;20347;-86
2021/10/01 08:35:59;;;;;;;5.05;2.00;;;14.10;99.90;;;;;;4963259;28;20051;-86
2021/10/01 08:38:26;;;;;;;5.25;1.58;;;14.20;99.90;;;;;;4963588;28;20058;-86
2021/10/01 08:40:53;;;;;;;4.25;1.77;;;14.30;99.90;;;;;;4946028;28;20054;-86
2021/10/01 08:43:21;;;;;;;6.82;1.92;;;14.30;99.90;;;;;;4958273;28;20054;-86
2021/10/01 08:45:48;;;;;;;4.38;1.60;;;14.30;99.90;;;;;;4963383;28;20567;-86
2021/10/01 08:48:16;;;;;;;3.65;2.17;;;14.40;99.90;;;;;;4962897;28;20058;-86
2021/10/01 08:50:43;;;;;;;4.03;1.50;;;14.40;99.90;;;;;;4961315;28;20054;-86
2021/10/01 08:53:11;;;;;;;5.13;1.67;;;14.50;99.90;;;;;;4960875;28;20042;-87
2021/10/01 08:55:38;;;;;;;4.35;1.67;;;14.40;99.90;;;;;;4964270;28;20073;-87
2021/10/01 08:58:05;;;;;;;5.82;2.10;;;14.50;99.90;;;;;;4960977;28;20086;-87
2021/10/01 09:00:32;;;;;;;3.90;1.42;;;14.60;99.90;;;;;;4944740;28;20046;-86
2021/10/01 09:02:59;;;;;;;7.95;3.05;;;14.60;99.90;;;;;;4958754;28;20050;-86
2021/10/01 09:05:27;;;;;;;3.80;1.80;;;14.70;99.90;;;;;;4961922;28;20716;-85
2021/10/01 09:07:54;;;;;;;5.22;1.80;;;14.60;99.90;;;;;;4962650;28;20055;-86
2021/10/01 09:10:21;;;;;;;2.50;1.25;;;14.60;99.90;;;;;;4930737;28;20432;-86
2021/10/01 09:12:53;;;;;;;6.82;1.45;;;14.60;99.90;;;;;;4962480;28;20046;-86
2021/10/01 09:15:21;;;;;;;5.35;1.38;;;14.60;99.90;;;;;;4961951;28;20105;-85
2021/10/01 09:17:58;;;;;;;4.90;1.75;;;14.70;99.90;;;;;;4940366;29;20134;-87
2021/10/01 09:20:27;;;;;;;4.63;1.83;;;14.70;99.90;;;;;;4955538;28;20157;-86
2021/10/01 09:23:17;;;;;;;3.42;1.55;;;14.80;99.90;;;;;;4938509;28;20050;-86
2021/10/01 09:25:44;;;;;;;3.75;1.02;;;14.80;99.90;;;;;;4946280;28;20058;-86
2021/10/01 09:28:14;;;;;;;4.65;1.85;;;14.80;99.90;;;;;;4945110;28;20701;-86
2021/10/01 09:30:49;;;;;;;6.18;1.27;;;14.90;99.90;;;;;;4946248;28;20413;-85
2021/10/01 09:33:20;;;;;;;3.53;1.15;;;14.90;99.90;;;;;;4961363;28;21018;-87
2021/10/01 09:35:48;;;;;;;2.92;1.55;;;15.00;99.90;;;;;;4963760;28;20121;-86
2021/10/01 09:38:18;;;;;;;2.30;1.52;;;15.00;99.90;;;;;;4956145;28;20050;-86
2021/10/01 09:41:06;;;;;;;4.15;1.00;;;15.10;99.90;;;;;;4963588;28;20106;-87
2021/10/01 09:43:33;;;;;;;3.80;1.30;;;15.20;99.90;;;;;;4960692;28;20172;-87
2021/10/01 09:46:08;;;;;;;6.68;2.00;;;15.20;99.90;;;;;;4945064;28;20038;-85
2021/10/01 09:48:40;;;;;;;3.35;1.75;;;15.30;99.90;;;;;;4944067;28;20061;-87
2021/10/01 09:51:08;;;;;;;5.80;1.20;;;15.30;99.90;;;;;;4946051;28;20549;-86
2021/10/01 09:53:46;;;;;;;1.63;1.52;;;15.30;99.90;;;;;;4944356;28;20222;-87
2021/10/01 09:56:32;;;;;;;4.25;2.40;;;15.30;99.90;;;;;;4960536;28;20043;-87
2021/10/01 09:59:21;;;;;;;5.97;2.05;;;15.30;99.90;;;;;;4954959;28;20051;-86
2021/10/01 10:02:12;;;;;;;4.65;1.42;;;15.30;99.90;;;;;;4956801;28;20150;-86
2021/10/01 10:04:41;;;;;;;;;;;15.30;99.90;;;;;;4941656;28;20820;-89
2021/10/01 10:07:13;;;;;;;1.55;0.73;;;15.40;99.90;;;;;;4928792;28;19930;-86
2021/10/01 10:09:51;;;;;;;2.13;1.10;;;15.40;99.90;;;;;;4962288;28;20057;-87
2021/10/01 10:12:33;;;;;;;4.00;0.80;;;15.40;99.90;;;;;;4969791;28;20770;-86
2021/10/01 10:15:03;;;;;;;1.48;1.08;;;15.50;99.90;;;;;;4948517;28;20552;-86
2021/10/01 10:17:30;;;;;;;9.73;2.23;;;15.50;99.90;;;;;;4968762;28;20053;-87
2021/10/01 10:20:00;;;;;;;7.05;1.30;;;15.60;99.90;;;;;;4967478;28;20289;-86
2021/10/01 10:22:28;;;;;;;;;;;15.50;99.90;;;;;;4968953;28;20058;-87
2021/10/01 10:24:56;;;;;;;5.10;1.58;;;15.50;99.90;;;;;;4965878;28;19944;-88
2021/10/01 10:27:26;;;;;;;5.85;1.25;;;15.50;99.90;;;;;;4967904;28;20038;-88
2021/10/01 10:29:53;;;;;;;3.03;1.05;;;15.50;99.90;;;;;;4950178;28;20142;-87
2021/10/01 10:32:30;;;;;;;2.13;0.90;;;15.60;99.90;;;;;;4947377;28;20054;-87
2021/10/01 10:35:00;;;;;;;5.40;1.60;;;15.50;99.90;;;;;;4961392;28;20118;-86
2021/10/01 10:37:48;;;;;;;2.95;1.02;;;15.50;99.90;;;;;;4968903;28;20051;-86
2021/10/01 10:40:17;;;;;;;3.20;1.40;;;15.50;99.90;;;;;;4964896;28;20051;-87
2021/10/01 10:42:47;;;;;;;3.28;1.33;;;15.50;99.90;;;;;;4935025;28;20618;-88
2021/10/01 10:45:21;;;;;;;4.10;1.20;;;15.60;99.90;;;;;;4950991;28;20082;-87
2021/10/01 10:47:49;;;;;;;2.65;1.38;;;15.60;99.90;;;;;;4969569;28;20054;-86
2021/10/01 10:50:25;;;;;;;2.63;1.40;;;15.70;99.90;;;;;;4951593;28;20636;-87
2021/10/01 10:53:04;;;;;;;5.22;1.25;;;15.80;99.90;;;;;;4969805;28;20042;-87
2021/10/01 10:56:05;;;;;;;2.03;1.13;;;15.70;99.90;;;;;;4965541;28;20042;-87
2021/10/01 10:58:37;;;;;;;2.95;1.40;;;15.70;99.90;;;;;;4967266;28;20066;-87
2021/10/01 11:01:15;;;;;;;2.13;1.63;;;15.80;99.90;;;;;;4967814;28;20224;-88
2021/10/01 11:03:47;;;;;;;3.53;1.08;;;15.70;99.90;;;;;;4948755;28;20417;-86
2021/10/01 11:06:19;;;;;;;2.90;1.40;;;15.70;99.90;;;;;;4967434;28;20082;-84
2021/10/01 11:09:13;;;;;;;6.82;2.75;;;15.80;99.90;;;;;;4961636;28;20128;-84
2021/10/01 11:11:44;;;;;;;0.77;0.68;;;15.90;99.90;;;;;;4944082;28;20043;-85
2021/10/01 11:14:17;;;;;;;;;;;15.90;99.90;;;;;;4963789;28;20838;-85
2021/10/01 11:16:46;;;;;;;2.67;1.00;;;16.00;99.90;;;;;;4961886;28;19922;-85
2021/10/01 11:19:13;;;;;;;4.40;1.45;;;15.90;99.90;;;;;;4937181;28;20047;-84
2021/10/01 11:21:42;;;;;;;7.20;1.25;;;16.00;99.90;;;;;;4961929;28;20082;-84
2021/10/01 11:24:19;;;;;;;3.40;0.70;;;16.10;99.90;;;;;;4958741;28;20526;-84
2021/10/01 11:26:50;;;;;;;7.45;0.93;;;16.20;99.90;;;;;;4959545;28;20062;-84
2021/10/01 11:29:26;;;;;;;2.55;0.90;;;16.20;99.90;;;;;;4944436;28;20141;-84
2021/10/01 11:31:59;;;;;;;4.35;0.93;;;16.20;99.90;;;;;;4943644;28;20165;-84
2021/10/01 11:34:43;;;;;;;1.80;0.70;;;16.20;99.90;;;;;;4963092;28;20043;-84
2021/10/01 11:37:43;;;;;;;3.83;1.10;;;16.30;99.90;;;;;;4890481;28;20042;-85
2021/10/01 11:40:27;;;;;;;1.23;0.75;;;16.20;99.90;;;;;;4937658;28;20093;-83
2021/10/01 11:42:59;;;;;;;1.15;0.70;;;16.00;99.90;;;;;;4921606;28;20047;-84
2021/10/01 11:45:35;;;;;;;2.20;0.82;;;15.90;99.90;;;;;;4941886;28;20059;-84
2021/10/01 11:48:05;;;;;;;4.85;1.25;;;16.00;99.90;;;;;;4924784;28;22811;-83
2021/10/01 11:50:35;;;;;;;6.93;1.55;;;16.00;99.90;;;;;;4943334;28;20069;-83
2021/10/01 11:53:04;;;;;;;5.43;0.95;;;16.10;99.90;;;;;;4940076;28;20054;-84
2021/10/01 11:55:35;;;;;;;6.03;1.05;;;16.10;99.90;;;;;;4943704;28;20093;-85
2021/10/01 11:58:15;;;;;;;3.30;1.50;;;16.10;99.90;;;;;;4939878;28;20055;-84
2021/10/01 12:00:42;;;;;;;3.90;1.15;;;16.00;99.90;;;;;;4941182;28;20050;-82
2021/10/01 12:03:14;;;;;;;4.15;1.08;;;16.10;99.90;;;;;;4939584;28;20057;-82
2021/10/01 12:05:52;;;;;;;4.15;1.02;;;16.00;99.90;;;;;;4925093;28;20142;-84
2021/10/01 12:08:23;;;;;;;2.95;0.93;;;15.90;99.90;;;;;;4942407;28;20410;-83
2021/10/01 12:10:54;;;;;;;2.20;1.25;;;15.80;99.90;;;;;;4942384;28;20740;-83
2021/10/01 12:13:32;;;;;;;2.95;1.25;;;15.80;99.90;;;;;;4908680;28;20110;-84
2021/10/01 12:16:11;;;;;;;3.60;1.50;;;15.80;99.90;;;;;;4940737;28;20059;-84
2021/10/01 12:18:42;;;;;;;9.63;2.38;;;15.80;99.90;;;;;;4924163;28;20054;-83
2021/10/01 12:21:17;;;;;;;3.85;1.13;;;15.80;99.90;;;;;;4940116;28;20538;-84
2021/10/01 12:23:50;;;;;;;6.45;2.20;;;15.90;99.90;;;;;;4942035;28;20046;-83
2021/10/01 12:26:25;;;;;;;1.42;1.02;;;15.80;99.90;;;;;;4924219;28;20544;-84
2021/10/01 12:29:07;;;;;;;1.98;1.10;;;15.80;99.90;;;;;;4924371;28;20136;-84
2021/10/01 12:31:39;;;;;;;4.40;1.58;;;15.90;99.90;;;;;;4923063;28;20091;-83
2021/10/01 12:34:09;;;;;;;8.98;1.27;;;16.00;99.90;;;;;;4934397;28;20074;-83
2021/10/01 12:36:37;;;;;;;;;;;16.00;99.90;;;;;;4923410;28;20039;-83
2021/10/01 12:39:04;;;;;;;3.50;0.95;;;16.10;99.90;;;;;;4922859;28;19928;-84
2021/10/01 12:41:31;;;;;;;2.33;1.35;;;16.10;99.90;;;;;;4941163;28;20035;-81
2021/10/01 12:44:02;;;;;;;7.75;1.08;;;16.10;99.90;;;;;;4938895;28;20054;-82
2021/10/01 12:46:35;;;;;;;;;;;16.00;99.90;;;;;;4939761;28;20053;-84
2021/10/01 12:49:29;;;;;;;3.97;0.70;;;16.00;99.90;;;;;;4924571;28;20070;-83
2021/10/01 12:52:13;;;;;;;5.05;1.17;;;16.00;99.90;;;;;;4935021;28;20065;-84
2021/10/01 12:54:44;;;;;;;1.63;0.88;;;16.00;99.90;;;;;;4939858;28;20074;-86
2021/10/01 12:57:20;;;;;;;2.00;1.10;;;16.10;99.90;;;;;;4923338;28;20057;-85
2021/10/01 12:59:51;;;;;;;2.80;0.70;;;16.00;99.90;;;;;;4923195;28;20148;-87
2021/10/01 13:02:19;;;;;;;1.27;0.98;;;16.20;99.90;;;;;;4924879;28;20810;-84
2021/10/01 13:04:52;;;;;;;2.10;0.95;;;16.00;99.90;;;;;;4940649;28;20054;-83
2021/10/01 13:07:28;;;;;;;2.67;0.60;;;16.00;99.90;;;;;;4939717;28;20061;-84
2021/10/01 13:09:56;;;;;;;1.42;0.82;;;15.90;99.90;;;;;;4940977;28;20515;-84
2021/10/01 13:12:44;;;;;;;18.67;1.40;;;15.90;99.90;;;;;;4925719;28;20082;-84
2021/10/01 13:15:31;;;;;;;7.63;1.00;;;15.90;99.90;;;;;;4922210;28;20050;-85
2021/10/01 13:18:00;;;;;;;2.28;1.00;;;15.90;99.90;;;;;;4938552;28;20058;-85
2021/10/01 13:20:28;;;;;;;1.70;0.60;;;15.90;99.90;;;;;;4944802;28;20125;-87
2021/10/01 13:23:01;;;;;;;3.95;0.93;;;16.00;99.90;;;;;;4940679;28;20648;-87
2021/10/01 13:25:32;;;;;;;6.30;1.05;;;16.00;99.90;;;;;;4922711;28;20058;-86
2021/10/01 13:28:02;;;;;;;3.00;1.08;;;16.10;99.90;;;;;;4943923;28;20137;-87
2021/10/01 13:30:29;;;;;;;3.95;1.35;;;16.10;99.90;;;;;;4910793;28;20492;-85
2021/10/01 13:32:57;;;;;;;3.67;1.35;;;16.00;99.90;;;;;;4939816;28;20055;-87
2021/10/01 13:35:25;;;;;;;2.72;0.88;;;15.90;99.90;;;;;;4924252;28;20572;-85
2021/10/01 13:37:52;;;;;;;3.28;1.55;;;15.80;99.90;;;;;;4942203;28;20113;-87
2021/10/01 13:40:20;;;;;;;3.60;1.45;;;15.90;99.90;;;;;;4923253;28;20051;-86
2021/10/01 13:42:47;;;;;;;8.95;2.10;;;15.90;99.90;;;;;;4922772;28;20050;-85
2021/10/01 13:45:15;;;;;;;3.35;1.30;;;15.90;99.90;;;;;;4936237;28;20065;-88
2021/10/01 13:47:43;;;;;;;2.42;0.80;;;15.90;99.90;;;;;;4940228;28;20051;-87
2021/10/01 13:50:11;;;;;;;2.70;0.77;;;16.00;99.90;;;;;;4921949;28;20131;-86
2021/10/01 13:52:39;;;;;;;2.50;1.02;;;16.00;99.90;;;;;;4939684;28;20059;-86
2021/10/01 13:55:07;;;;;;;1.70;0.77;;;16.10;99.90;;;;;;4922572;28;20051;-85
2021/10/01 13:57:34;;;;;;;0.70;0.70;;;16.00;99.90;;;;;;4938133;28;20674;-87
2021/10/01 14:00:02;;;;;;;7.78;2.45;;;16.00;99.90;;;;;;4939308;28;20046;-86
2021/10/01 14:02:39;;;;;;;2.33;0.82;;;16.00;99.90;;;;;;4939639;28;20138;-86
2021/10/01 14:05:10;;;;;;;7.72;1.30;;;16.00;99.90;;;;;;4905382;28;20043;-86
2021/10/01 14:07:38;;;;;;;1.17;0.57;;;16.10;99.90;;;;;;4943489;28;20051;-86
2021/10/01 14:10:17;;;;;;;1.58;0.82;;;16.10;99.90;;;;;;4941244;28;20492;-86
2021/10/01 14:12:47;;;;;;;1.15;0.93;;;16.00;99.90;;;;;;4940996;28;20110;-86
2021/10/01 14:15:17;;;;;;;5.70;1.00;;;15.90;99.90;;;;;;4938316;28;20090;-86
2021/10/01 14:17:44;;;;;;;3.22;1.02;;;15.70;99.90;;;;;;4922814;28;20058;-85
2021/10/01 14:20:14;;;;;;;2.72;0.82;;;15.50;99.90;;;;;;4939536;28;20058;-84
2021/10/01 14:22:42;;;;;;;5.57;1.63;;;15.50;99.90;;;;;;4941282;28;20043;-87
2021/10/01 14:25:11;;;;;;;2.17;1.35;;;15.30;99.90;;;;;;4938260;28;20055;-85
2021/10/01 14:27:41;;;;;;;2.03;0.90;;;15.40;99.90;;;;;;4940192;28;20055;-86
2021/10/01 14:30:11;;;;;;;3.95;1.40;;;15.30;99.90;;;;;;4940889;28;20138;-85
2021/10/01 14:32:39;;;;;;;2.47;1.38;;;15.20;99.90;;;;;;4942482;28;20611;-85
2021/10/01 14:35:08;;;;;;;7.97;1.80;;;15.20;99.90;;;;;;4920908;28;20069;-85
2021/10/01 14:37:36;;;;;;;5.75;1.90;;;15.20;99.90;;;;;;4943119;28;22071;-86
2021/10/01 14:40:08;;;;;;;4.22;1.33;;;15.20;99.90;;;;;;4940507;28;20055;-86